createdAt,value
2018-07-22T00:00:10.664Z,6.90
2018-07-22T00:02:39.486Z,10.63
2018-07-22T00:05:08.676Z,10.03
2018-07-22T00:07:37.809Z,7.93
2018-07-22T00:10:08.791Z,15.07
2018-07-22T00:12:37.426Z,16.30
2018-07-22T00:15:06.550Z,9.80
2018-07-22T00:17:35.090Z,7.03
2018-07-22T00:20:03.902Z,17.07
2018-07-22T00:22:32.320Z,8.07
2018-07-22T00:25:01.596Z,9.73
2018-07-22T00:27:30.004Z,17.73
2018-07-22T00:29:59.265Z,15.27
2018-07-22T00:32:27.768Z,9.67
2018-07-22T00:34:56.373Z,15.50
2018-07-22T00:37:24.909Z,14.23
2018-07-22T00:39:53.337Z,14.07
2018-07-22T00:42:21.782Z,7.30
2018-07-22T00:44:50.262Z,7.57
2018-07-22T00:47:18.893Z,17.43
2018-07-22T00:49:47.339Z,17.77
2018-07-22T00:52:16.065Z,12.40
2018-07-22T00:54:44.748Z,10.83
2018-07-22T00:57:13.270Z,6.23
2018-07-22T00:59:41.762Z,7.97
2018-07-22T01:02:10.178Z,16.23
2018-07-22T01:04:38.994Z,9.90
2018-07-22T01:07:07.474Z,12.97
2018-07-22T01:09:35.893Z,18.50
2018-07-22T01:12:05.231Z,8.83
2018-07-22T01:14:34.314Z,13.53
2018-07-22T01:17:02.794Z,14.50
2018-07-22T01:19:31.227Z,12.03
2018-07-22T01:21:59.766Z,7.70
2018-07-22T01:24:28.154Z,18.43
2018-07-22T01:26:57.159Z,14.67
2018-07-22T01:29:25.618Z,11.07
2018-07-22T01:31:54.933Z,13.00
2018-07-22T01:34:23.699Z,14.70
2018-07-22T01:36:52.325Z,16.60
2018-07-22T01:39:20.942Z,12.70
2018-07-22T01:41:49.466Z,18.83
2018-07-22T01:44:17.997Z,16.90
2018-07-22T01:46:46.189Z,21.20
2018-07-22T01:49:15.455Z,17.03
2018-07-22T01:51:43.886Z,22.13
2018-07-22T01:54:12.300Z,21.50
2018-07-22T01:56:40.888Z,24.73
2018-07-22T01:59:09.518Z,19.47
2018-07-22T02:01:37.971Z,29.97
2018-07-22T02:04:06.574Z,19.50
2018-07-22T02:06:36.168Z,17.03
2018-07-22T02:09:07.357Z,16.60
2018-07-22T02:11:35.956Z,17.80
2018-07-22T02:14:04.826Z,9.57
2018-07-22T02:16:33.445Z,21.87
2018-07-22T02:19:02.207Z,23.60
2018-07-22T02:21:30.531Z,16.00
2018-07-22T02:23:59.081Z,9.27
2018-07-22T02:26:27.616Z,7.70
2018-07-22T02:28:56.150Z,5.83
2018-07-22T02:31:25.422Z,8.03
2018-07-22T02:33:53.831Z,8.20
2018-07-22T02:36:22.230Z,7.77
2018-07-22T02:38:51.341Z,13.73
2018-07-22T02:41:20.333Z,11.83
2018-07-22T02:43:49.318Z,7.10
2018-07-22T02:46:17.843Z,7.80
2018-07-22T02:48:46.751Z,16.80
2018-07-22T02:51:15.858Z,20.17
2018-07-22T02:53:44.402Z,13.00
2018-07-22T02:56:12.874Z,20.03
2018-07-22T02:58:41.376Z,27.73
2018-07-22T03:01:09.898Z,14.63
2018-07-22T03:03:38.397Z,22.90
2018-07-22T03:06:06.926Z,24.23
2018-07-22T03:08:35.853Z,12.57
2018-07-22T03:11:05.262Z,18.37
2018-07-22T03:13:34.008Z,11.13
2018-07-22T03:16:02.606Z,16.40
2018-07-22T03:18:31.954Z,20.50
2018-07-22T03:21:01.085Z,20.00
2018-07-22T03:23:29.777Z,9.27
2018-07-22T03:25:58.199Z,8.20
2018-07-22T03:28:26.697Z,7.67
2018-07-22T03:30:55.136Z,7.60
2018-07-22T03:33:24.463Z,6.23
2018-07-22T03:35:52.851Z,7.93
2018-07-22T03:38:21.921Z,5.90
2018-07-22T03:40:50.702Z,6.93
2018-07-22T03:43:19.124Z,6.50
2018-07-22T03:45:47.543Z,7.40
2018-07-22T03:48:16.007Z,6.07
2018-07-22T03:50:44.561Z,5.10
2018-07-22T03:53:13.221Z,6.73
2018-07-22T03:55:41.752Z,6.13
2018-07-22T03:58:10.202Z,6.53
2018-07-22T04:00:38.700Z,5.60
2018-07-22T04:03:07.494Z,6.70
2018-07-22T04:05:36.226Z,11.33
2018-07-22T04:08:05.230Z,5.80
2018-07-22T04:10:33.832Z,7.03
2018-07-22T04:13:02.284Z,6.63
2018-07-22T04:15:30.862Z,5.07
2018-07-22T04:17:59.432Z,4.30
2018-07-22T04:20:27.821Z,5.87
2018-07-22T04:22:57.037Z,4.47
2018-07-22T04:25:25.486Z,5.00
2018-07-22T04:27:54.583Z,5.63
2018-07-22T04:30:22.969Z,13.57
2018-07-22T04:32:52.065Z,7.70
2018-07-22T04:35:20.459Z,5.17
2018-07-22T04:37:49.023Z,7.53
2018-07-22T04:40:17.541Z,12.17
2018-07-22T04:42:45.962Z,11.27
2018-07-22T04:45:14.411Z,9.47
2018-07-22T04:47:42.905Z,6.23
2018-07-22T04:50:11.361Z,8.77
2018-07-22T04:52:39.911Z,9.13
2018-07-22T04:55:08.505Z,16.47
2018-07-22T04:57:36.993Z,10.57
2018-07-22T05:00:06.149Z,17.20
2018-07-22T05:02:34.714Z,17.23
2018-07-22T05:05:03.256Z,16.93
2018-07-22T05:07:32.347Z,11.50
2018-07-22T05:10:00.734Z,7.50
2018-07-22T05:12:29.166Z,6.20
2018-07-22T05:14:57.617Z,6.50
2018-07-22T05:17:26.044Z,4.53
2018-07-22T05:19:54.466Z,5.00
2018-07-22T05:22:23.015Z,5.43
2018-07-22T05:24:51.565Z,5.87
2018-07-22T05:27:19.652Z,6.57
2018-07-22T05:29:48.194Z,9.87
2018-07-22T05:32:16.702Z,7.13
2018-07-22T05:34:46.165Z,5.03
2018-07-22T05:37:14.661Z,4.93
2018-07-22T05:39:43.338Z,14.03
2018-07-22T05:42:11.931Z,14.97
2018-07-22T05:44:40.330Z,7.00
2018-07-22T05:47:08.814Z,5.70
2018-07-22T05:49:37.300Z,5.07
2018-07-22T05:52:06.265Z,6.03
2018-07-22T05:54:34.807Z,4.97
2018-07-22T05:57:03.366Z,8.40
2018-07-22T05:59:31.832Z,7.03
2018-07-22T06:02:00.377Z,7.27
2018-07-22T06:04:29.390Z,8.00
2018-07-22T06:06:57.929Z,7.83
2018-07-22T06:09:26.387Z,5.97
2018-07-22T06:11:54.919Z,7.83
2018-07-22T06:14:22.981Z,10.73
2018-07-22T06:16:51.588Z,12.10
2018-07-22T06:19:20.213Z,8.37
2018-07-22T06:21:48.726Z,13.90
2018-07-22T06:24:17.255Z,8.33
2018-07-22T06:26:46.867Z,8.17
2018-07-22T06:29:15.544Z,9.03
2018-07-22T06:31:43.974Z,10.97
2018-07-22T06:34:12.427Z,6.97
2018-07-22T06:36:41.560Z,5.67
2018-07-22T06:39:12.073Z,12.10
2018-07-22T06:41:41.305Z,12.33
2018-07-22T06:44:10.074Z,7.83
2018-07-22T06:46:38.677Z,15.33
2018-07-22T06:49:08.028Z,13.23
2018-07-22T06:51:36.519Z,16.13
2018-07-22T06:54:05.063Z,17.00
2018-07-22T06:56:34.905Z,16.33
2018-07-22T06:59:03.482Z,17.07
2018-07-22T07:01:32.543Z,16.37
2018-07-22T07:04:01.153Z,15.73
2018-07-22T07:06:29.636Z,10.10
2018-07-22T07:08:58.123Z,12.03
2018-07-22T07:11:26.528Z,11.53
2018-07-22T07:13:55.034Z,13.97
2018-07-22T07:16:23.509Z,13.37
2018-07-22T07:18:51.954Z,12.43
2018-07-22T07:21:20.935Z,8.83
2018-07-22T07:23:49.453Z,9.43
2018-07-22T07:26:18.609Z,11.47
2018-07-22T07:28:47.182Z,9.17
2018-07-22T07:31:15.589Z,14.83
2018-07-22T07:33:44.049Z,16.80
2018-07-22T07:36:12.497Z,13.53
2018-07-22T07:38:41.016Z,13.07
2018-07-22T07:41:09.586Z,17.40
2018-07-22T07:43:38.577Z,17.20
2018-07-22T07:46:07.431Z,17.63
2018-07-22T07:48:35.869Z,15.30
2018-07-22T07:51:04.391Z,12.17
2018-07-22T07:53:32.974Z,14.27
2018-07-22T07:56:02.273Z,14.10
2018-07-22T07:58:30.747Z,14.43
2018-07-22T08:00:59.384Z,17.47
2018-07-22T08:03:28.294Z,14.43
2018-07-22T08:05:57.154Z,16.23
2018-07-22T08:08:25.589Z,11.33
2018-07-22T08:10:54.207Z,17.73
2018-07-22T08:13:22.805Z,11.90
2018-07-22T08:15:51.317Z,15.80
2018-07-22T08:18:19.722Z,15.43
2018-07-22T08:20:48.610Z,11.37
2018-07-22T08:23:17.092Z,15.47
2018-07-22T08:29:29.808Z,15.60
2018-07-22T08:31:58.621Z,15.30
2018-07-22T08:34:27.874Z,13.53
2018-07-22T08:36:56.109Z,14.47
2018-07-22T08:39:25.650Z,15.77
2018-07-22T08:41:54.776Z,14.97
2018-07-22T08:44:24.166Z,12.47
2018-07-22T08:46:53.359Z,14.07
2018-07-22T08:49:23.445Z,16.37
2018-07-22T08:51:52.417Z,13.60
2018-07-22T08:54:21.000Z,12.23
2018-07-22T08:56:49.634Z,12.73
2018-07-22T08:59:18.565Z,11.93
2018-07-22T09:01:47.081Z,12.27
2018-07-22T09:04:16.550Z,11.87
2018-07-22T09:06:45.966Z,13.37
2018-07-22T09:09:15.069Z,12.83
2018-07-22T09:11:43.569Z,14.17
2018-07-22T09:14:12.224Z,12.57
2018-07-22T09:16:40.979Z,14.38
2018-07-22T09:19:10.168Z,13.93
2018-07-22T09:21:43.685Z,9.00
2018-07-22T09:24:29.128Z,12.30
2018-07-22T09:26:57.780Z,11.88
2018-07-22T09:29:26.432Z,10.98
2018-07-22T09:31:54.939Z,10.90
2018-07-22T09:34:23.534Z,11.53
2018-07-22T09:36:52.165Z,14.45
2018-07-22T09:39:20.616Z,10.43
2018-07-22T09:41:49.153Z,14.78
2018-07-22T09:44:18.170Z,11.18
2018-07-22T09:46:47.317Z,10.13
2018-07-22T09:49:15.990Z,10.13
2018-07-22T09:51:44.638Z,8.43
2018-07-22T09:54:13.184Z,10.10
2018-07-22T09:56:41.729Z,7.78
2018-07-22T09:59:10.304Z,11.03
2018-07-22T10:01:38.770Z,10.30
2018-07-22T10:04:07.750Z,9.75
2018-07-22T10:06:36.238Z,6.97
2018-07-22T10:09:07.730Z,11.05
2018-07-22T10:11:37.024Z,11.12
2018-07-22T10:14:05.688Z,11.93
2018-07-22T10:16:34.099Z,9.70
2018-07-22T10:19:02.558Z,12.05
2018-07-22T10:21:31.219Z,12.18
2018-07-22T10:23:59.716Z,12.30
2018-07-22T10:26:28.252Z,11.05
2018-07-22T10:28:56.364Z,9.78
2018-07-22T10:31:24.810Z,11.20
2018-07-22T10:33:53.534Z,10.10
2018-07-22T10:36:22.040Z,11.15
2018-07-22T10:38:50.451Z,8.58
2018-07-22T10:41:19.144Z,10.32
2018-07-22T10:43:47.576Z,10.75
2018-07-22T10:46:16.022Z,10.30
2018-07-22T10:48:44.485Z,10.58
2018-07-22T10:51:13.150Z,9.98
2018-07-22T10:53:41.446Z,9.58
2018-07-22T10:56:09.962Z,10.88
2018-07-22T10:58:38.452Z,7.28
2018-07-22T11:01:07.026Z,9.53
2018-07-22T11:03:36.381Z,10.68
2018-07-22T11:06:04.869Z,10.58
2018-07-22T11:08:33.419Z,11.10
2018-07-22T11:11:02.085Z,9.58
2018-07-22T11:13:30.619Z,9.70
2018-07-22T11:15:59.693Z,10.03
2018-07-22T11:18:28.910Z,10.43
2018-07-22T11:20:57.430Z,11.18
2018-07-22T11:23:25.910Z,10.38
2018-07-22T11:25:54.411Z,10.30
2018-07-22T11:28:22.922Z,10.78
2018-07-22T11:30:51.450Z,10.55
2018-07-22T11:33:19.905Z,11.00
2018-07-22T11:35:48.469Z,11.75
2018-07-22T11:38:17.791Z,9.65
2018-07-22T11:40:47.042Z,10.98
2018-07-22T11:43:15.713Z,11.43
2018-07-22T11:45:44.321Z,8.13
2018-07-22T11:48:12.985Z,8.60
2018-07-22T11:50:41.616Z,12.40
2018-07-22T11:53:10.045Z,11.65
2018-07-22T11:55:38.671Z,11.78
2018-07-22T11:58:07.417Z,13.60
2018-07-22T12:00:36.097Z,10.93
2018-07-22T12:03:05.053Z,10.82
2018-07-22T12:05:34.149Z,11.65
2018-07-22T12:08:02.388Z,9.75
2018-07-22T12:10:31.182Z,8.48
2018-07-22T12:12:59.787Z,11.18
2018-07-22T12:15:28.358Z,11.68
2018-07-22T12:17:56.803Z,12.03
2018-07-22T12:20:25.257Z,12.50
2018-07-22T12:22:53.799Z,11.97
2018-07-22T12:25:22.433Z,12.95
2018-07-22T12:27:50.979Z,16.40
2018-07-22T12:30:19.439Z,20.90
2018-07-22T12:32:48.922Z,15.75
2018-07-22T12:35:17.608Z,16.42
2018-07-22T12:37:46.614Z,13.85
2018-07-22T12:40:15.159Z,13.88
2018-07-22T12:42:43.766Z,9.15
2018-07-22T12:45:12.290Z,14.83
2018-07-22T12:47:40.731Z,11.40
2018-07-22T12:50:09.386Z,17.48
2018-07-22T12:52:38.707Z,19.90
2018-07-22T12:55:07.240Z,16.75
2018-07-22T12:57:35.801Z,15.43
2018-07-22T13:00:04.605Z,18.80
2018-07-22T13:02:33.852Z,15.50
2018-07-22T13:05:02.947Z,17.65
2018-07-22T13:07:31.353Z,16.73
2018-07-22T13:09:59.868Z,18.98
2018-07-22T13:12:28.830Z,12.70
2018-07-22T13:14:57.345Z,21.35
2018-07-22T13:17:25.871Z,19.87
2018-07-22T13:19:54.402Z,22.00
2018-07-22T13:22:22.881Z,22.00
2018-07-22T13:24:51.399Z,21.90
2018-07-22T13:27:19.989Z,21.97
2018-07-22T13:29:53.343Z,19.27
2018-07-22T13:32:22.601Z,16.00
2018-07-22T13:34:51.178Z,20.20
2018-07-22T13:37:19.851Z,13.37
2018-07-22T13:39:49.029Z,11.20
2018-07-22T13:42:17.692Z,11.93
2018-07-22T13:44:46.195Z,10.77
2018-07-22T13:47:14.788Z,14.20
2018-07-22T13:49:43.293Z,10.63
2018-07-22T13:52:11.781Z,9.63
2018-07-22T13:54:40.398Z,8.10
2018-07-22T13:57:09.306Z,9.37
2018-07-22T13:59:37.824Z,7.77
2018-07-22T14:02:07.298Z,9.30
2018-07-22T14:04:36.381Z,12.50
2018-07-22T14:07:04.978Z,12.20
2018-07-22T14:09:33.420Z,11.83
2018-07-22T14:12:01.980Z,8.87
2018-07-22T14:14:30.502Z,14.50
2018-07-22T14:16:59.079Z,7.20
2018-07-22T14:19:27.604Z,8.30
2018-07-22T14:21:56.086Z,6.33
2018-07-22T14:24:24.652Z,5.63
2018-07-22T14:26:53.127Z,12.93
2018-07-22T14:29:21.703Z,9.50
2018-07-22T14:31:50.264Z,10.27
2018-07-22T14:34:18.759Z,10.10
2018-07-22T14:36:47.206Z,14.13
2018-07-22T14:39:15.691Z,7.23
2018-07-22T14:41:44.105Z,14.87
2018-07-22T14:44:12.596Z,7.90
2018-07-22T14:46:41.067Z,8.10
2018-07-22T14:49:09.597Z,7.27
2018-07-22T14:51:38.083Z,11.87
2018-07-22T14:54:06.686Z,9.17
2018-07-22T14:56:35.191Z,9.50
2018-07-22T14:59:03.657Z,9.47
2018-07-22T15:01:32.263Z,7.83
2018-07-22T15:04:00.729Z,7.50
2018-07-22T15:06:29.256Z,10.27
2018-07-22T15:08:58.578Z,10.53
2018-07-22T15:11:27.160Z,8.03
2018-07-22T15:13:56.164Z,15.30
2018-07-22T15:16:25.344Z,9.27
2018-07-22T15:18:54.017Z,9.73
2018-07-22T15:21:22.750Z,10.10
2018-07-22T15:23:51.182Z,9.80
2018-07-22T15:26:19.324Z,8.97
2018-07-22T15:28:47.917Z,7.33
2018-07-22T15:31:16.939Z,10.97
2018-07-22T15:33:45.460Z,13.87
2018-07-22T15:36:14.000Z,8.40
2018-07-22T15:38:42.472Z,6.27
2018-07-22T15:41:11.036Z,15.63
2018-07-22T15:43:39.531Z,10.80
2018-07-22T15:46:08.116Z,15.53
2018-07-22T15:48:36.773Z,14.13
2018-07-22T15:51:05.630Z,18.13
2018-07-22T15:53:34.148Z,13.30
2018-07-22T15:56:02.703Z,20.40
2018-07-22T15:58:31.283Z,19.83
2018-07-22T16:00:59.746Z,15.77
2018-07-22T16:03:28.481Z,12.70
2018-07-22T16:05:57.012Z,9.17
2018-07-22T16:08:25.577Z,14.87
2018-07-22T16:10:54.123Z,17.50
2018-07-22T16:13:22.769Z,13.23
2018-07-22T16:15:51.286Z,13.23
2018-07-22T16:18:20.224Z,11.47
2018-07-22T16:20:48.778Z,12.13
2018-07-22T16:23:17.395Z,11.90
2018-07-22T16:25:45.953Z,10.67
2018-07-22T16:28:14.211Z,13.10
2018-07-22T16:30:42.842Z,11.67
2018-07-22T16:33:11.185Z,15.90
2018-07-22T16:35:39.873Z,8.03
2018-07-22T16:38:08.445Z,7.43
2018-07-22T16:40:37.094Z,10.40
2018-07-22T16:43:33.266Z,7.23
2018-07-22T16:47:05.196Z,9.47
2018-07-22T16:49:34.506Z,16.13
2018-07-22T16:52:03.123Z,17.37
2018-07-22T16:54:32.047Z,9.70
2018-07-22T16:57:00.263Z,19.80
2018-07-22T16:59:29.447Z,13.80
2018-07-22T17:01:58.209Z,15.97
2018-07-22T17:04:27.224Z,12.70
2018-07-22T17:06:55.964Z,9.03
2018-07-22T17:09:24.704Z,17.30
2018-07-22T17:11:53.954Z,18.20
2018-07-22T17:14:23.374Z,11.10
2018-07-22T17:16:51.953Z,13.77
2018-07-22T17:19:20.397Z,19.83
2018-07-22T17:21:49.397Z,15.87
2018-07-22T17:24:17.994Z,13.00
2018-07-22T17:26:47.246Z,11.07
2018-07-22T17:29:16.447Z,13.50
2018-07-22T17:31:44.978Z,18.80
2018-07-22T17:34:13.582Z,13.77
2018-07-22T17:36:42.552Z,18.60
2018-07-22T17:39:11.612Z,14.77
2018-07-22T17:41:40.421Z,12.20
2018-07-22T17:44:09.696Z,11.77
2018-07-22T17:46:38.442Z,8.97
2018-07-22T17:49:07.328Z,20.00
2018-07-22T17:51:36.618Z,15.70
2018-07-22T17:54:05.670Z,9.90
2018-07-22T17:56:34.148Z,13.67
2018-07-22T17:59:02.953Z,17.53
2018-07-22T18:01:31.701Z,12.10
2018-07-22T18:04:00.255Z,14.90
2018-07-22T18:06:28.975Z,18.67
2018-07-22T18:08:57.689Z,18.53
2018-07-22T18:11:26.421Z,18.80
2018-07-22T18:13:55.667Z,11.03
2018-07-22T18:16:24.487Z,9.43
2018-07-22T18:18:53.260Z,9.60
2018-07-22T18:21:22.600Z,7.67
2018-07-22T18:23:51.551Z,9.67
2018-07-22T18:26:20.753Z,8.90
2018-07-22T18:28:49.333Z,22.13
2018-07-22T18:31:17.824Z,10.53
2018-07-22T18:33:46.370Z,22.17
2018-07-22T18:36:14.911Z,12.97
2018-07-22T18:38:43.648Z,18.40
2018-07-22T18:41:12.283Z,21.20
2018-07-22T18:43:41.175Z,20.73
2018-07-22T18:46:09.737Z,18.00
2018-07-22T18:48:39.277Z,10.90
2018-07-22T18:51:08.256Z,15.30
2018-07-22T18:53:36.948Z,12.70
2018-07-22T18:56:05.927Z,8.03
2018-07-22T18:58:34.916Z,15.53
2018-07-22T19:01:03.892Z,10.60
2018-07-22T19:03:32.751Z,10.07
2018-07-22T19:06:03.073Z,11.20
2018-07-22T19:08:31.935Z,10.17
2018-07-22T19:11:00.749Z,13.23
2018-07-22T19:13:30.559Z,14.13
2018-07-22T19:15:59.441Z,12.47
2018-07-22T19:18:28.272Z,11.97
2018-07-22T19:20:57.141Z,10.70
2018-07-22T19:23:26.069Z,15.73
2018-07-22T19:25:54.562Z,10.07
2018-07-22T19:28:23.597Z,8.93
2018-07-22T19:30:53.165Z,8.20
2018-07-22T19:33:22.243Z,9.77
2018-07-22T19:35:51.160Z,10.13
2018-07-22T19:38:20.834Z,9.37
2018-07-22T19:40:49.765Z,12.20
2018-07-22T19:43:18.644Z,10.97
2018-07-22T19:45:47.771Z,9.70
2018-07-22T19:48:17.542Z,14.83
2018-07-22T19:50:46.037Z,12.17
2018-07-22T19:53:14.963Z,8.27
2018-07-22T19:55:43.809Z,10.17
2018-07-22T19:58:12.643Z,8.93
2018-07-22T20:00:41.653Z,10.07
2018-07-22T20:03:10.545Z,8.80
2018-07-22T20:05:39.334Z,7.47
2018-07-22T20:08:08.433Z,9.27
2018-07-22T20:10:37.315Z,15.63
2018-07-22T20:13:06.157Z,10.00
2018-07-22T20:15:35.029Z,15.40
2018-07-22T20:18:03.549Z,10.83
2018-07-22T20:20:32.481Z,9.60
2018-07-22T20:23:01.314Z,9.57
2018-07-22T20:25:30.112Z,7.93
2018-07-22T20:27:59.218Z,11.07
2018-07-22T20:30:27.725Z,7.43
2018-07-22T20:32:56.411Z,12.90
2018-07-22T20:35:25.487Z,9.50
2018-07-22T20:37:54.316Z,12.87
2018-07-22T20:40:23.808Z,9.43
2018-07-22T20:42:52.619Z,9.90
2018-07-22T20:45:21.798Z,13.83
2018-07-22T20:47:50.315Z,7.70
2018-07-22T20:50:18.788Z,7.90
2018-07-22T20:52:47.325Z,18.37
2018-07-22T20:55:15.787Z,11.60
2018-07-22T20:57:44.310Z,10.60
2018-07-22T21:00:13.273Z,12.73
2018-07-22T21:02:42.234Z,13.90
2018-07-22T21:05:10.753Z,14.20
2018-07-22T21:07:39.377Z,9.03
2018-07-22T21:10:07.980Z,11.57
2018-07-22T21:12:48.730Z,11.97
2018-07-22T21:15:27.834Z,8.53
2018-07-22T21:17:56.347Z,13.33
2018-07-22T21:20:24.957Z,12.00
2018-07-22T21:22:53.471Z,14.93
2018-07-22T21:25:22.015Z,10.80
2018-07-22T21:27:56.134Z,8.47
2018-07-22T21:30:24.362Z,7.70
2018-07-22T21:32:54.746Z,10.50
2018-07-22T21:35:24.816Z,10.13
2018-07-22T21:37:53.460Z,7.37
2018-07-22T21:40:22.955Z,11.27
2018-07-22T21:42:52.208Z,7.73
2018-07-22T21:45:22.277Z,8.30
2018-07-22T21:50:27.077Z,13.37
2018-07-22T21:52:56.438Z,21.63
2018-07-22T21:55:26.622Z,26.03
2018-07-22T21:57:55.187Z,26.13
2018-07-22T22:00:32.328Z,11.33
2018-07-22T22:03:03.171Z,8.07
2018-07-22T22:05:31.775Z,8.77
2018-07-22T22:08:00.335Z,7.20
2018-07-22T22:10:28.871Z,6.83
2018-07-22T22:12:57.936Z,9.77
2018-07-22T22:15:31.487Z,8.43
2018-07-22T22:18:03.132Z,7.23
2018-07-22T22:20:31.853Z,9.63
2018-07-22T22:23:00.450Z,11.07
2018-07-22T22:25:29.136Z,8.77
2018-07-22T22:27:57.787Z,7.23
2018-07-22T22:30:27.114Z,11.77
2018-07-22T22:32:58.314Z,11.03
2018-07-22T22:35:27.508Z,22.37
2018-07-22T22:37:56.446Z,32.33
2018-07-22T22:40:25.000Z,32.03
2018-07-22T22:42:54.058Z,14.20
2018-07-22T22:45:22.557Z,12.40
2018-07-22T22:47:51.148Z,23.83
2018-07-22T22:50:19.775Z,25.77
2018-07-22T22:52:49.114Z,13.77
2018-07-22T22:55:18.234Z,23.13
2018-07-22T22:57:58.125Z,13.20
2018-07-22T23:00:26.789Z,20.70
2018-07-22T23:02:55.272Z,28.50
2018-07-22T23:05:23.842Z,28.37
2018-07-22T23:07:52.381Z,29.50
2018-07-22T23:10:20.915Z,32.60
2018-07-22T23:12:49.461Z,24.20
2018-07-22T23:15:18.035Z,15.43
2018-07-22T23:17:46.525Z,10.20
2018-07-22T23:20:15.042Z,10.47
2018-07-22T23:22:43.574Z,14.97
2018-07-22T23:25:12.112Z,18.87
2018-07-22T23:27:40.583Z,15.60
2018-07-22T23:30:09.191Z,15.43
2018-07-22T23:32:37.830Z,20.40
2018-07-22T23:35:06.695Z,12.13
2018-07-22T23:37:35.334Z,12.90
2018-07-22T23:40:04.119Z,12.10
2018-07-22T23:42:32.681Z,11.83
2018-07-22T23:45:01.199Z,9.93
2018-07-22T23:47:29.817Z,14.43
2018-07-22T23:49:58.409Z,14.43
2018-07-22T23:52:26.956Z,11.00
2018-07-22T23:54:55.479Z,19.23
2018-07-22T23:57:24.154Z,22.17
2018-07-22T23:59:52.639Z,34.20
